Startpagina
METAR-TAF:

METAR-TAF

Vliegvelden :

Aeroporto Internacional Salgado Filho

Porto Alegre, Rio Grande do Sul, Brazilië

breedte: 30-00S, lengte: 051-11W, hoogte: 3 m

Actueel weer

Dit bericht is 1 uur en het 7 minuten geleden gemaakt, om 19:00 UTC
Wind 6 kt uit het oostzuidoosten, variërend tussen het oostnoordoosten en het zuidoosten
Temperatuur 26°C
Vochtigheid 54%
Druk 1010 hPa
Zicht 10 km of meer
geen wolken onder 1500 m en geen cumulonimbus

METAR: SBPA 151900Z 11006KT 070V140 CAVOK 26/16 Q1010

Tijdstip: 17:07 (20:07 UTC)

Verwachting

Dit bericht is 4 uur en het 37 minuten geleden gemaakt, om 15:30 UTC
Verwachting geldig van 15 om 18 UTC tot 16 om 18 UTC
Wind 7 kt uit het oosten
Zicht 10 km of meer
Verspreide wolken op 3000 ft
Kans 40%
van 16 om 07 UTC tot 16 om 09 UTC
Gebroken wolken op 1000 ft

TAF: SBPA 151530Z 1518/1618 10007KT 9999 SCT030 TN15/1608Z TX29/1618Z PROB40 1607/1609 BKN010 RMK PER

Waarnemingen en weersverwachtingen van meer dan 4000 vliegvelden (METAR en TAF).

De beschikbare stations zijn de gele en rode punten op de kaart.

Ga met uw muis naar het station om de naam te zien.

Klik dan om waarnemingen en weersverwachtingen te zien.

kaart wijzigen: klik op de groene knoppen met een zwart kruis om in te zoomen, op de groene knop met een streepje om uit te zoomen of op de groene pijlen voor aangrenzende kaarten.


METAR-TAF: